Musselburgh, United Kingdom
Current Conditions -  °F | °C
As of 1:20 AM on Wednesday 22 Oct 2014 (Local Time) from EGPH Reporting Station
Clear Clear  
Wind Chill: 41°   Ceiling: Unl
Heat Index: 46°   Visibility: 6mi
Dew Point: 37°   Wind: 13mph
Humidity: 71%   Direction: 260°W
Pressure: 29.97"   Gusts: NA
Location:  55.94°N, 3.05°W
Report Text: EGPH 220020Z 26011KT CAVOK 08/03 Q1015
Loading
Personal Weather Stations






























Interactive Weather Map
Tropical Storm Tracking
New forecast layout! Learn more

10-Day Weather Forecast

Advertisements
Track Severe Weather on mobile